Time;durP1;ratioP1;P1;durP2;ratioP2;P2;SDS_P1;SDS_P2;PMS_P1;PMS_P2;Temp;Humidity;BMP_temperature;BMP_pressure;BME280_temperature;BME280_humidity;BME280_pressure;Samples;Min_cycle;Max_cycle;Signal;HPM_P1;HPM_P2
2021/06/26 00:00:40;;;;;;;10.85;9.70;;;20.80;99.30;;;;;;2096521;28;20027;-74
2021/06/26 00:01:40;;;;;;;10.38;9.30;;;20.70;99.40;;;;;;2096000;28;20024;-75
2021/06/26 00:02:41;;;;;;;12.90;9.82;;;20.70;99.50;;;;;;2096266;28;20016;-74
2021/06/26 00:03:42;;;;;;;12.32;9.77;;;20.70;99.70;;;;;;2095641;28;20597;-74
2021/06/26 00:04:44;;;;;;;11.73;9.95;;;20.70;99.60;;;;;;2096109;28;20095;-74
2021/06/26 00:05:45;;;;;;;9.05;8.15;;;20.70;99.60;;;;;;2096276;28;20511;-74
2021/06/26 00:06:46;;;;;;;10.38;7.78;;;20.60;98.70;;;;;;2096592;28;20417;-74
2021/06/26 00:07:49;;;;;;;8.25;7.35;;;20.70;98.50;;;;;;2104104;28;20020;-74
2021/06/26 00:08:52;;;;;;;10.23;8.68;;;20.60;97.70;;;;;;2099794;28;20453;-74
2021/06/26 00:09:52;;;;;;;9.75;7.55;;;20.60;98.50;;;;;;2088054;28;20028;-74
2021/06/26 00:10:55;;;;;;;9.02;8.23;;;20.60;98.20;;;;;;2087612;28;20032;-74
2021/06/26 00:11:55;;;;;;;8.85;8.05;;;20.50;98.10;;;;;;2093810;28;20135;-75
2021/06/26 00:12:56;;;;;;;8.85;7.95;;;20.50;98.70;;;;;;2096523;28;20126;-74
2021/06/26 00:13:57;;;;;;;10.77;9.57;;;20.50;98.90;;;;;;2096405;28;20036;-74
2021/06/26 00:14:58;;;;;;;10.13;9.18;;;20.50;99.60;;;;;;2092481;28;20032;-74
2021/06/26 00:15:58;;;;;;;10.35;9.35;;;20.40;99.40;;;;;;2079293;28;20602;-74
2021/06/26 00:16:59;;;;;;;12.43;9.52;;;20.40;99.70;;;;;;2087535;28;20024;-74
2021/06/26 00:17:59;;;;;;;11.20;8.80;;;20.40;99.90;;;;;;2095610;28;20498;-74
2021/06/26 00:19:00;;;;;;;10.55;9.55;;;20.30;99.90;;;;;;2095511;28;20025;-74
2021/06/26 00:20:01;;;;;;;10.88;9.57;;;20.30;99.90;;;;;;2088142;28;20480;-74
2021/06/26 00:21:01;;;;;;;9.82;8.93;;;20.30;99.90;;;;;;2087861;28;20025;-74
2021/06/26 00:22:02;;;;;;;11.02;9.50;;;20.30;99.70;;;;;;2095180;28;20032;-74
2021/06/26 00:23:03;;;;;;;10.95;9.43;;;20.30;99.90;;;;;;2095507;28;20067;-74
2021/06/26 00:24:04;;;;;;;10.35;9.35;;;20.20;99.90;;;;;;2095500;28;20124;-74
2021/06/26 00:25:05;;;;;;;9.43;8.52;;;20.20;99.90;;;;;;2091511;28;20557;-74
2021/06/26 00:26:06;;;;;;;10.07;9.18;;;20.20;99.70;;;;;;2089947;28;20400;-74
2021/06/26 00:27:07;;;;;;;10.63;9.38;;;20.20;99.90;;;;;;2087826;28;20116;-74
2021/06/26 00:28:07;;;;;;;9.52;8.63;;;20.10;99.90;;;;;;2088061;28;20021;-75
2021/06/26 00:29:10;;;;;;;10.35;9.35;;;20.10;99.90;;;;;;2088206;28;20027;-75
2021/06/26 00:30:11;;;;;;;10.00;8.25;;;20.10;99.90;;;;;;2088138;28;20099;-74
2021/06/26 00:31:12;;;;;;;9.77;8.88;;;20.00;99.90;;;;;;2095273;28;20029;-74
2021/06/26 00:32:13;;;;;;;11.07;9.48;;;20.00;99.90;;;;;;2095467;28;20024;-74
2021/06/26 00:33:13;;;;;;;8.75;7.95;;;20.00;99.90;;;;;;2095167;28;20017;-74
2021/06/26 00:34:14;;;;;;;8.80;8.05;;;20.00;99.90;;;;;;2095715;28;20035;-74
2021/06/26 00:35:15;;;;;;;10.05;8.23;;;20.00;99.90;;;;;;2095585;28;20046;-74
2021/06/26 00:36:16;;;;;;;10.10;9.10;;;19.90;99.90;;;;;;2087350;28;20021;-74
2021/06/26 00:37:16;;;;;;;10.85;9.77;;;19.90;99.90;;;;;;2081771;28;20029;-74
2021/06/26 00:38:17;;;;;;;10.50;9.50;;;19.90;99.90;;;;;;2095889;28;20044;-74
2021/06/26 00:39:18;;;;;;;11.65;9.52;;;19.80;99.90;;;;;;2095058;28;20484;-74
2021/06/26 00:40:19;;;;;;;11.63;9.63;;;19.80;99.90;;;;;;2096407;28;20491;-74
2021/06/26 00:41:19;;;;;;;9.98;8.43;;;19.80;99.90;;;;;;2096287;28;20348;-74
2021/06/26 00:42:20;;;;;;;11.57;10.38;;;19.80;99.90;;;;;;2103485;28;20411;-74
2021/06/26 00:43:21;;;;;;;11.40;10.23;;;19.70;99.90;;;;;;2095514;28;20024;-74
2021/06/26 00:44:27;;;;;;;9.95;8.85;;;19.70;99.90;;;;;;2095706;28;20044;-74
2021/06/26 00:45:27;;;;;;;11.52;9.93;;;19.70;99.90;;;;;;2087933;28;20029;-74
2021/06/26 00:46:28;;;;;;;12.93;9.85;;;19.70;99.90;;;;;;2087892;28;20025;-74
2021/06/26 00:47:28;;;;;;;11.65;10.45;;;19.60;99.90;;;;;;2087925;28;20490;-74
2021/06/26 00:48:29;;;;;;;10.48;9.48;;;19.60;99.90;;;;;;2087852;28;20025;-74
2021/06/26 00:49:30;;;;;;;11.07;9.88;;;19.60;99.90;;;;;;2088042;28;20102;-74
2021/06/26 00:50:30;;;;;;;11.40;10.20;;;19.60;99.90;;;;;;2087779;28;20021;-74
2021/06/26 00:51:31;;;;;;;11.77;9.88;;;19.50;99.90;;;;;;2094758;28;20052;-74
2021/06/26 00:52:31;;;;;;;14.85;10.70;;;19.50;99.90;;;;;;2095689;28;20032;-74
2021/06/26 00:53:32;;;;;;;14.43;11.18;;;19.50;99.90;;;;;;2088071;28;20032;-74
2021/06/26 00:54:36;;;;;;;9.93;8.93;;;19.50;99.90;;;;;;2087499;28;20471;-74
2021/06/26 00:55:37;;;;;;;9.88;8.88;;;19.50;99.90;;;;;;2087841;28;20044;-74
2021/06/26 00:56:37;;;;;;;10.88;9.77;;;19.40;99.90;;;;;;2087813;28;20104;-74
2021/06/26 00:57:43;;;;;;;10.30;9.40;;;19.40;99.90;;;;;;2088117;28;20450;-74
2021/06/26 00:58:45;;;;;;;11.02;9.85;;;19.40;99.90;;;;;;2095344;28;20021;-74
2021/06/26 00:59:49;;;;;;;11.50;10.35;;;19.30;99.90;;;;;;2095596;28;20025;-74
2021/06/26 01:00:51;;;;;;;9.98;9.07;;;19.30;99.90;;;;;;2095515;28;20074;-74
2021/06/26 01:01:52;;;;;;;10.18;9.15;;;19.30;99.90;;;;;;2086622;28;20439;-74
2021/06/26 01:02:54;;;;;;;10.23;8.02;;;19.30;99.90;;;;;;2087442;28;20041;-74
2021/06/26 01:03:55;;;;;;;9.88;8.98;;;19.30;99.90;;;;;;2087622;28;20061;-74
2021/06/26 01:04:55;;;;;;;9.75;8.75;;;19.30;99.90;;;;;;2089562;28;20033;-74
2021/06/26 01:05:56;;;;;;;10.80;9.70;;;19.30;99.90;;;;;;2096125;28;20025;-74
2021/06/26 01:06:56;;;;;;;9.52;8.63;;;19.20;99.90;;;;;;2096666;28;20028;-74
2021/06/26 01:07:57;;;;;;;11.13;10.10;;;19.20;99.90;;;;;;2097721;28;20099;-74
2021/06/26 01:08:57;;;;;;;12.18;10.88;;;19.20;99.90;;;;;;2097063;28;20031;-74
2021/06/26 01:09:58;;;;;;;10.88;9.43;;;19.20;99.90;;;;;;2097329;28;20058;-74
2021/06/26 01:10:59;;;;;;;12.38;10.55;;;19.10;99.90;;;;;;2097745;28;20472;-74
2021/06/26 01:11:59;;;;;;;10.15;9.13;;;19.10;99.90;;;;;;2097364;28;20126;-75
2021/06/26 01:13:00;;;;;;;13.18;10.10;;;19.10;99.90;;;;;;2105533;28;20504;-74
2021/06/26 01:14:02;;;;;;;11.38;10.23;;;19.10;99.90;;;;;;2105874;28;20032;-74
2021/06/26 01:15:04;;;;;;;11.10;9.93;;;19.00;99.90;;;;;;2093652;28;20025;-74
2021/06/26 01:16:05;;;;;;;10.30;9.30;;;19.00;99.90;;;;;;2084479;28;20033;-74
2021/06/26 01:17:09;;;;;;;10.38;9.38;;;19.00;99.90;;;;;;2089648;28;20025;-74
2021/06/26 01:18:09;;;;;;;10.50;9.50;;;19.00;99.90;;;;;;2088539;28;20029;-74
2021/06/26 01:19:11;;;;;;;11.20;10.10;;;19.00;99.90;;;;;;2088750;28;20029;-74
2021/06/26 01:20:15;;;;;;;10.77;9.60;;;18.90;99.90;;;;;;2104182;28;20032;-74
2021/06/26 01:21:17;;;;;;;11.50;10.38;;;18.90;99.90;;;;;;2097066;28;20668;-74
2021/06/26 01:22:21;;;;;;;10.35;9.30;;;18.90;99.90;;;;;;2096332;28;20055;-74
2021/06/26 01:23:24;;;;;;;12.73;11.43;;;18.90;99.90;;;;;;2088556;28;20029;-74
2021/06/26 01:24:25;;;;;;;12.07;10.43;;;18.80;99.90;;;;;;2088722;28;20025;-74
2021/06/26 01:25:28;;;;;;;11.45;10.32;;;18.80;99.90;;;;;;2097275;28;20028;-74
2021/06/26 01:26:31;;;;;;;12.90;11.55;;;18.80;99.90;;;;;;2095093;28;20421;-74
2021/06/26 01:27:32;;;;;;;11.40;10.10;;;18.80;99.90;;;;;;2089724;28;20017;-74
2021/06/26 01:28:32;;;;;;;12.02;9.85;;;18.70;99.90;;;;;;2089471;28;20025;-74
2021/06/26 01:29:33;;;;;;;10.80;9.80;;;18.70;99.90;;;;;;2089679;28;20365;-74
2021/06/26 01:30:35;;;;;;;12.93;11.63;;;18.70;99.90;;;;;;2089102;28;20021;-74
2021/06/26 01:31:36;;;;;;;11.07;10.00;;;18.70;99.90;;;;;;2087963;28;20020;-74
2021/06/26 01:32:38;;;;;;;11.50;10.38;;;18.70;99.90;;;;;;2087914;28;20040;-74
2021/06/26 01:33:38;;;;;;;11.90;10.70;;;18.70;99.90;;;;;;2093888;28;20020;-74
2021/06/26 01:34:39;;;;;;;10.65;9.38;;;18.60;99.90;;;;;;2095588;28;20026;-74
2021/06/26 01:35:40;;;;;;;10.60;9.48;;;18.60;99.90;;;;;;2093184;28;20029;-74
2021/06/26 01:36:41;;;;;;;11.25;9.63;;;18.60;99.90;;;;;;2089025;28;20032;-74
2021/06/26 01:37:42;;;;;;;11.52;10.38;;;18.60;99.90;;;;;;2092531;28;20031;-74
2021/06/26 01:38:42;;;;;;;13.88;11.90;;;18.60;99.90;;;;;;2097595;28;20487;-74
2021/06/26 01:39:43;;;;;;;12.88;10.43;;;18.60;99.90;;;;;;2094463;28;20103;-74
2021/06/26 01:40:43;;;;;;;10.93;9.88;;;18.60;99.90;;;;;;2090104;28;20024;-74
2021/06/26 01:41:44;;;;;;;12.20;10.98;;;18.60;99.90;;;;;;2091281;28;20032;-74
2021/06/26 01:42:46;;;;;;;13.10;10.95;;;18.60;99.90;;;;;;2089794;28;20063;-74
2021/06/26 01:43:47;;;;;;;13.00;11.77;;;18.50;99.90;;;;;;2093961;28;20026;-74
2021/06/26 01:44:47;;;;;;;13.05;11.75;;;18.50;99.90;;;;;;2095251;28;20064;-74
2021/06/26 01:45:48;;;;;;;12.00;10.80;;;18.50;99.90;;;;;;2093259;28;20032;-74
2021/06/26 01:46:49;;;;;;;11.93;10.73;;;18.50;99.90;;;;;;2091198;28;20407;-74
2021/06/26 01:47:56;;;;;;;14.35;12.60;;;18.40;99.90;;;;;;2096155;28;20023;-74
2021/06/26 01:49:12;;;;;;;11.80;10.60;;;18.40;99.90;;;;;;2097508;28;20021;-74
2021/06/26 01:50:14;;;;;;;11.98;10.88;;;18.40;99.90;;;;;;2097370;28;20386;-74
2021/06/26 01:51:15;;;;;;;10.95;9.95;;;18.40;99.90;;;;;;2097256;28;20017;-74
2021/06/26 01:52:15;;;;;;;11.82;9.70;;;18.30;99.90;;;;;;2092019;28;20055;-74
2021/06/26 01:53:18;;;;;;;13.70;12.15;;;18.40;99.90;;;;;;2095071;28;20517;-74
2021/06/26 01:54:18;;;;;;;11.48;10.45;;;18.30;99.90;;;;;;2090210;28;20024;-74
2021/06/26 01:55:21;;;;;;;12.38;10.65;;;18.30;99.90;;;;;;2092387;28;20025;-74
2021/06/26 01:56:21;;;;;;;11.77;9.80;;;18.30;99.90;;;;;;2089419;28;20028;-74
2021/06/26 01:57:22;;;;;;;12.93;11.73;;;18.30;99.90;;;;;;2088892;28;20071;-74
2021/06/26 01:58:24;;;;;;;12.70;11.32;;;18.20;99.90;;;;;;2089308;28;20033;-74
2021/06/26 01:59:24;;;;;;;10.82;9.68;;;18.30;99.90;;;;;;2089090;28;20023;-74
2021/06/26 02:00:25;;;;;;;11.10;10.00;;;18.20;99.90;;;;;;2088693;28;20021;-74
2021/06/26 02:01:26;;;;;;;11.00;9.00;;;18.20;99.90;;;;;;2097318;28;20391;-74
2021/06/26 02:02:27;;;;;;;12.57;10.60;;;18.20;99.90;;;;;;2097709;28;20021;-74
2021/06/26 02:03:27;;;;;;;11.75;10.55;;;18.20;99.90;;;;;;2090475;28;20028;-74
2021/06/26 02:04:28;;;;;;;11.02;9.95;;;18.20;99.90;;;;;;2097919;28;20021;-74
2021/06/26 02:05:28;;;;;;;11.02;9.63;;;18.20;99.90;;;;;;2089634;28;20021;-74
2021/06/26 02:06:29;;;;;;;11.82;10.68;;;18.20;99.90;;;;;;2081315;28;20615;-74
2021/06/26 02:07:29;;;;;;;10.93;9.90;;;18.10;99.90;;;;;;2090083;28;20022;-74
2021/06/26 02:08:32;;;;;;;11.45;10.32;;;18.10;99.90;;;;;;2097218;28;20063;-74
2021/06/26 02:09:32;;;;;;;12.02;10.55;;;18.10;99.90;;;;;;2102532;28;20078;-74
2021/06/26 02:10:33;;;;;;;11.48;10.38;;;18.10;99.90;;;;;;2101633;28;20056;-74
2021/06/26 02:11:35;;;;;;;13.75;12.15;;;18.10;99.90;;;;;;2091685;28;20029;-74
2021/06/26 02:12:35;;;;;;;13.63;11.88;;;18.00;99.90;;;;;;2090240;28;20423;-74
2021/06/26 02:13:36;;;;;;;12.25;10.90;;;18.00;99.90;;;;;;2090432;28;20100;-74
2021/06/26 02:14:37;;;;;;;14.25;12.00;;;18.00;99.90;;;;;;2090045;28;20103;-74
2021/06/26 02:15:38;;;;;;;13.48;12.18;;;18.00;99.90;;;;;;2090473;28;20032;-74
2021/06/26 02:16:39;;;;;;;12.30;11.07;;;18.00;99.90;;;;;;2097715;28;20079;-74
2021/06/26 02:17:40;;;;;;;13.00;11.70;;;17.90;99.90;;;;;;2097721;28;20395;-74
2021/06/26 02:18:41;;;;;;;15.02;12.85;;;17.90;99.90;;;;;;2096620;28;20017;-74
2021/06/26 02:19:41;;;;;;;12.65;11.35;;;17.90;99.90;;;;;;2098066;28;20546;-74
2021/06/26 02:20:42;;;;;;;13.32;11.98;;;17.90;99.90;;;;;;2097872;28;20028;-74
2021/06/26 02:21:42;;;;;;;13.45;12.07;;;17.90;99.90;;;;;;2093817;28;20024;-74
2021/06/26 02:22:45;;;;;;;12.73;11.43;;;17.90;99.90;;;;;;2097749;28;20418;-74
2021/06/26 02:23:46;;;;;;;11.80;10.60;;;17.90;99.90;;;;;;2095945;28;20020;-74
2021/06/26 02:24:46;;;;;;;12.57;11.27;;;17.90;99.90;;;;;;2092578;28;20029;-74
2021/06/26 02:25:47;;;;;;;12.13;10.93;;;17.90;99.90;;;;;;2089188;28;20116;-74
2021/06/26 02:26:47;;;;;;;12.40;11.13;;;17.90;99.90;;;;;;2096512;28;20028;-75
2021/06/26 02:27:48;;;;;;;12.65;11.05;;;17.80;99.90;;;;;;2097604;28;20023;-74
2021/06/26 02:28:49;;;;;;;10.95;9.85;;;17.80;99.90;;;;;;2097719;28;20028;-74
2021/06/26 02:29:49;;;;;;;13.30;11.35;;;17.80;99.90;;;;;;2092356;28;20423;-74
2021/06/26 02:30:50;;;;;;;14.82;12.30;;;17.80;99.90;;;;;;2087745;28;20100;-74
2021/06/26 02:31:50;;;;;;;13.23;11.98;;;17.80;99.90;;;;;;2089116;28;20021;-74
2021/06/26 02:32:51;;;;;;;15.68;13.27;;;17.70;99.90;;;;;;2089312;28;20048;-74
2021/06/26 02:33:51;;;;;;;12.50;11.30;;;17.70;99.90;;;;;;2097894;28;20115;-74
2021/06/26 02:34:53;;;;;;;14.57;11.73;;;17.70;99.90;;;;;;2097572;28;20021;-74
2021/06/26 02:35:54;;;;;;;13.60;12.23;;;17.70;99.90;;;;;;2090028;28;20039;-74
2021/06/26 02:36:54;;;;;;;13.50;12.15;;;17.70;99.90;;;;;;2090172;28;20021;-74
2021/06/26 02:37:55;;;;;;;13.70;12.35;;;17.70;99.90;;;;;;2090492;28;20029;-74
2021/06/26 02:38:56;;;;;;;13.48;12.07;;;17.70;99.90;;;;;;2088606;28;20025;-74
2021/06/26 02:39:56;;;;;;;13.05;11.63;;;17.70;99.90;;;;;;2081178;28;20038;-74
2021/06/26 02:40:57;;;;;;;13.55;12.23;;;17.60;99.90;;;;;;2088489;28;20472;-74
2021/06/26 02:41:57;;;;;;;13.10;11.80;;;17.60;99.90;;;;;;2096549;28;20024;-74
2021/06/26 02:42:58;;;;;;;12.30;10.60;;;17.60;99.90;;;;;;2097069;28;20040;-74
2021/06/26 02:43:58;;;;;;;12.88;11.02;;;17.60;99.90;;;;;;2090199;28;20552;-74
2021/06/26 02:44:59;;;;;;;13.10;11.90;;;17.60;99.90;;;;;;2090257;28;20664;-74
2021/06/26 02:45:59;;;;;;;12.55;11.23;;;17.60;99.90;;;;;;2090015;28;20453;-74
2021/06/26 02:47:00;;;;;;;12.65;11.40;;;17.60;99.90;;;;;;2090107;28;20025;-74
2021/06/26 02:48:01;;;;;;;15.02;11.57;;;17.60;99.90;;;;;;2089944;28;20088;-74
2021/06/26 02:49:01;;;;;;;13.68;11.02;;;17.60;99.90;;;;;;2089456;28;20025;-74
2021/06/26 02:50:03;;;;;;;13.07;11.65;;;17.50;99.90;;;;;;2088597;28;20894;-74
2021/06/26 02:51:04;;;;;;;12.75;11.52;;;17.50;99.90;;;;;;2092281;28;20028;-74
2021/06/26 02:52:05;;;;;;;15.02;13.05;;;17.50;99.90;;;;;;2088323;28;20025;-74
2021/06/26 02:53:06;;;;;;;13.73;12.02;;;17.50;99.90;;;;;;2084666;28;20028;-74
2021/06/26 02:54:06;;;;;;;14.40;12.90;;;17.50;99.90;;;;;;2091227;28;20097;-74
2021/06/26 02:55:07;;;;;;;14.98;12.63;;;17.50;99.90;;;;;;2090731;28;20573;-74
2021/06/26 02:56:08;;;;;;;14.55;13.05;;;17.50;99.90;;;;;;2098663;28;20031;-74
2021/06/26 02:57:08;;;;;;;14.63;13.23;;;17.40;99.90;;;;;;2097757;28;20032;-74
2021/06/26 02:58:09;;;;;;;12.93;11.65;;;17.40;99.90;;;;;;2089954;28;20484;-74
2021/06/26 02:59:09;;;;;;;13.82;11.55;;;17.40;99.90;;;;;;2090013;28;20025;-74
2021/06/26 03:00:11;;;;;;;13.73;12.27;;;17.40;99.90;;;;;;2097520;28;20033;-74
2021/06/26 03:01:11;;;;;;;14.02;12.68;;;17.40;99.90;;;;;;2089359;28;20021;-74
2021/06/26 03:02:12;;;;;;;13.70;12.30;;;17.40;99.90;;;;;;2084541;28;20067;-74
2021/06/26 03:03:12;;;;;;;12.93;11.65;;;17.40;99.90;;;;;;2096645;28;20029;-74
2021/06/26 03:04:13;;;;;;;12.57;11.38;;;17.40;99.90;;;;;;2097349;28;20036;-74
2021/06/26 03:05:13;;;;;;;14.13;12.07;;;17.40;99.90;;;;;;2097185;28;20762;-74
2021/06/26 03:06:14;;;;;;;13.93;12.52;;;17.40;99.90;;;;;;2097248;28;20032;-74
2021/06/26 03:07:14;;;;;;;15.02;13.50;;;17.30;99.90;;;;;;2090547;28;20021;-74
2021/06/26 03:08:15;;;;;;;14.80;13.35;;;17.30;99.90;;;;;;2090525;28;20029;-74
2021/06/26 03:09:15;;;;;;;14.02;12.63;;;17.30;99.90;;;;;;2096506;28;20020;-74
2021/06/26 03:10:16;;;;;;;15.52;13.88;;;17.30;99.90;;;;;;2095988;28;20032;-74
2021/06/26 03:11:17;;;;;;;13.40;12.10;;;17.30;99.90;;;;;;2096331;28;20033;-74
2021/06/26 03:12:18;;;;;;;15.45;12.65;;;17.30;99.90;;;;;;2096476;28;20449;-74
2021/06/26 03:13:18;;;;;;;14.75;13.00;;;17.30;99.90;;;;;;2096829;28;20024;-74
2021/06/26 03:14:19;;;;;;;13.15;11.75;;;17.30;99.90;;;;;;2096568;28;20461;-74
2021/06/26 03:15:19;;;;;;;12.20;10.95;;;17.30;99.90;;;;;;2098047;28;20074;-74
2021/06/26 03:16:20;;;;;;;12.45;11.25;;;17.30;99.90;;;;;;2095704;28;20039;-74
2021/06/26 03:17:20;;;;;;;14.25;12.18;;;17.30;99.90;;;;;;2090629;28;20423;-74
2021/06/26 03:18:21;;;;;;;12.90;11.60;;;17.30;99.90;;;;;;2101479;28;20025;-74
2021/06/26 03:19:22;;;;;;;13.57;12.23;;;17.30;99.90;;;;;;2104234;28;20415;-74
2021/06/26 03:20:22;;;;;;;12.23;10.80;;;17.30;99.90;;;;;;2087836;28;20452;-74
2021/06/26 03:21:23;;;;;;;13.52;11.77;;;17.30;99.90;;;;;;2090318;28;20107;-74
2021/06/26 03:22:23;;;;;;;17.30;13.48;;;17.30;99.90;;;;;;2104447;28;20565;-74
2021/06/26 03:23:24;;;;;;;12.98;11.70;;;17.30;99.90;;;;;;2096763;28;20032;-74
2021/06/26 03:24:27;;;;;;;15.38;12.77;;;17.20;99.90;;;;;;2088993;28;20035;-74
2021/06/26 03:25:27;;;;;;;14.13;12.63;;;17.20;99.90;;;;;;2091471;28;20008;-74
2021/06/26 03:26:29;;;;;;;12.05;10.85;;;17.20;99.90;;;;;;2094493;28;20025;-74
2021/06/26 03:27:29;;;;;;;12.75;11.45;;;17.20;99.90;;;;;;2092352;28;20504;-74
2021/06/26 03:28:30;;;;;;;13.32;11.85;;;17.20;99.90;;;;;;2091441;28;20383;-74
2021/06/26 03:29:30;;;;;;;13.50;12.10;;;17.20;99.90;;;;;;2087994;28;20523;-74
2021/06/26 03:30:31;;;;;;;10.95;9.85;;;17.20;99.90;;;;;;2088824;28;20022;-74
2021/06/26 03:31:32;;;;;;;11.52;10.43;;;17.20;99.90;;;;;;2087750;28;20092;-74
2021/06/26 03:32:33;;;;;;;12.18;10.70;;;17.20;99.90;;;;;;2087808;28;20545;-74
2021/06/26 03:33:33;;;;;;;12.40;11.20;;;17.20;99.90;;;;;;2087591;28;20442;-74
2021/06/26 03:34:34;;;;;;;13.40;11.80;;;17.20;99.90;;;;;;2094563;28;20494;-74
2021/06/26 03:35:34;;;;;;;13.90;12.57;;;17.20;99.90;;;;;;2087316;28;20032;-74
2021/06/26 03:36:35;;;;;;;15.23;12.75;;;17.20;99.90;;;;;;2088340;28;20105;-74
2021/06/26 03:37:35;;;;;;;14.57;12.88;;;17.20;99.90;;;;;;2088457;28;20625;-74
2021/06/26 03:38:36;;;;;;;14.85;12.75;;;17.20;99.90;;;;;;2095962;28;20024;-74
2021/06/26 03:39:37;;;;;;;15.25;12.63;;;17.20;99.90;;;;;;2095907;28;20451;-74
2021/06/26 03:40:37;;;;;;;19.63;13.27;;;17.20;99.90;;;;;;2088666;28;20021;-74
2021/06/26 03:41:38;;;;;;;14.27;12.70;;;17.20;99.90;;;;;;2095395;28;20075;-74
2021/06/26 03:42:38;;;;;;;15.50;13.95;;;17.20;99.90;;;;;;2095765;28;20438;-74
2021/06/26 03:43:39;;;;;;;17.15;12.75;;;17.20;99.90;;;;;;2095465;28;20063;-74
2021/06/26 03:44:40;;;;;;;14.27;12.88;;;17.10;99.90;;;;;;2096252;28;20028;-74
2021/06/26 03:45:41;;;;;;;14.20;12.20;;;17.20;99.90;;;;;;2088179;28;20031;-74
2021/06/26 03:46:41;;;;;;;13.65;12.30;;;17.20;99.90;;;;;;2088922;28;20487;-74
2021/06/26 03:47:42;;;;;;;15.50;12.90;;;17.10;99.90;;;;;;2088392;28;20049;-74
2021/06/26 03:48:42;;;;;;;15.27;13.68;;;17.20;99.90;;;;;;2089857;28;20021;-74
2021/06/26 03:49:43;;;;;;;13.95;12.38;;;17.20;99.90;;;;;;2096705;28;20493;-74
2021/06/26 03:50:44;;;;;;;15.10;12.43;;;17.20;99.90;;;;;;2096429;28;20013;-74
2021/06/26 03:51:44;;;;;;;14.90;13.25;;;17.20;99.90;;;;;;2096048;28;20094;-74
2021/06/26 03:52:45;;;;;;;15.07;12.48;;;17.20;99.90;;;;;;2096397;28;20017;-74
2021/06/26 03:53:47;;;;;;;14.02;12.02;;;17.20;99.90;;;;;;2096502;28;20194;-74
2021/06/26 03:54:47;;;;;;;13.95;12.50;;;17.20;99.90;;;;;;2096268;28;20012;-74
2021/06/26 03:55:51;;;;;;;13.23;11.73;;;17.20;99.90;;;;;;2092412;28;20035;-74
2021/06/26 03:56:52;;;;;;;14.10;12.60;;;17.20;99.90;;;;;;2088323;28;20089;-74
2021/06/26 03:57:52;;;;;;;16.55;12.38;;;17.20;99.90;;;;;;2088423;28;20086;-74
2021/06/26 03:58:53;;;;;;;13.43;12.13;;;17.20;99.90;;;;;;2087960;28;20388;-74
2021/06/26 03:59:53;;;;;;;13.85;12.38;;;17.20;99.90;;;;;;2095762;28;20137;-74
2021/06/26 04:00:55;;;;;;;12.75;11.23;;;17.20;99.90;;;;;;2087420;28;20179;-74
2021/06/26 04:01:57;;;;;;;12.75;11.55;;;17.20;99.90;;;;;;2079066;28;20512;-74
2021/06/26 04:02:57;;;;;;;13.70;12.30;;;17.20;99.90;;;;;;2086918;28;20455;-74
2021/06/26 04:03:58;;;;;;;12.70;11.40;;;17.20;99.90;;;;;;2095705;28;20067;-74
2021/06/26 04:04:58;;;;;;;13.98;12.52;;;17.20;99.90;;;;;;2095783;28;20024;-74
2021/06/26 04:05:59;;;;;;;13.63;12.23;;;17.20;99.90;;;;;;2095545;28;20036;-74
2021/06/26 04:07:00;;;;;;;15.30;13.13;;;17.20;99.90;;;;;;2096376;28;20136;-74
2021/06/26 04:08:01;;;;;;;14.13;12.63;;;17.20;99.90;;;;;;2096705;28;20074;-74
2021/06/26 04:09:01;;;;;;;14.75;12.93;;;17.30;99.90;;;;;;2095968;28;20077;-74
2021/06/26 04:10:04;;;;;;;14.32;12.80;;;17.20;99.90;;;;;;2091409;28;20036;-74
2021/06/26 04:11:05;;;;;;;15.48;13.80;;;17.30;99.90;;;;;;2089955;28;20049;-74
2021/06/26 04:12:06;;;;;;;14.32;12.15;;;17.30;99.90;;;;;;2094188;28;20774;-74
2021/06/26 04:13:07;;;;;;;15.07;13.57;;;17.30;99.90;;;;;;2096422;28;20028;-74
2021/06/26 04:14:07;;;;;;;15.10;13.52;;;17.30;99.90;;;;;;2087152;28;20159;-74
2021/06/26 04:15:08;;;;;;;15.48;13.70;;;17.40;99.90;;;;;;2088562;28;20094;-74
2021/06/26 04:16:09;;;;;;;14.93;13.35;;;17.50;99.90;;;;;;2087660;28;20036;-74
2021/06/26 04:17:09;;;;;;;14.70;12.85;;;17.60;99.90;;;;;;2093463;28;20024;-74
2021/06/26 04:18:10;;;;;;;14.73;13.23;;;17.70;99.90;;;;;;2089592;28;20035;-74
2021/06/26 04:19:13;;;;;;;15.60;14.00;;;17.80;99.90;;;;;;2089115;28;20060;-74
2021/06/26 04:20:14;;;;;;;16.63;13.85;;;17.90;99.90;;;;;;2088122;28;20108;-74
2021/06/26 04:21:14;;;;;;;15.23;13.63;;;18.10;99.90;;;;;;2091774;28;20035;-74
2021/06/26 04:22:15;;;;;;;13.93;12.55;;;18.20;99.90;;;;;;2094264;28;20438;-74
2021/06/26 04:23:15;;;;;;;14.52;13.13;;;18.40;99.90;;;;;;2088384;28;20025;-74
2021/06/26 04:24:16;;;;;;;15.57;13.90;;;18.40;99.90;;;;;;2087808;28;20025;-74
2021/06/26 04:25:17;;;;;;;16.00;12.95;;;18.50;99.90;;;;;;2093169;28;20016;-74
2021/06/26 04:26:18;;;;;;;15.70;13.43;;;18.60;99.90;;;;;;2090124;28;20074;-74
2021/06/26 04:27:18;;;;;;;14.30;12.82;;;18.60;99.90;;;;;;2093111;28;20047;-74
2021/06/26 04:28:19;;;;;;;14.70;13.25;;;18.70;99.90;;;;;;2087256;28;20013;-74
2021/06/26 04:29:20;;;;;;;17.70;15.05;;;18.70;99.90;;;;;;2094470;28;20383;-74
2021/06/26 04:30:21;;;;;;;15.30;13.30;;;18.70;99.90;;;;;;2086983;28;20463;-74
2021/06/26 04:31:22;;;;;;;16.15;14.30;;;18.80;99.90;;;;;;2088000;28;20020;-74
2021/06/26 04:32:24;;;;;;;12.93;11.63;;;18.80;99.90;;;;;;2088116;28;20017;-74
2021/06/26 04:33:27;;;;;;;13.80;12.13;;;18.80;99.90;;;;;;2087290;28;20072;-74
2021/06/26 04:34:28;;;;;;;12.95;11.68;;;18.80;99.90;;;;;;2089293;28;20033;-74
2021/06/26 04:35:29;;;;;;;16.48;14.38;;;18.80;99.90;;;;;;2090329;28;20536;-74
2021/06/26 04:36:29;;;;;;;13.73;12.32;;;18.90;99.90;;;;;;2097595;28;20017;-74
2021/06/26 04:37:30;;;;;;;21.55;12.77;;;18.90;99.90;;;;;;2096361;28;20056;-74
2021/06/26 04:38:31;;;;;;;14.00;12.60;;;18.90;99.90;;;;;;2090294;28;20045;-74
2021/06/26 04:39:31;;;;;;;13.80;12.40;;;18.90;99.90;;;;;;2087798;28;20021;-74
2021/06/26 04:40:32;;;;;;;13.85;12.43;;;19.00;99.90;;;;;;2090249;28;20047;-74
2021/06/26 04:41:38;;;;;;;14.02;12.55;;;19.00;99.90;;;;;;2091146;28;20048;-74
2021/06/26 04:42:38;;;;;;;15.48;13.85;;;19.10;99.90;;;;;;2090534;28;20577;-74
2021/06/26 04:43:39;;;;;;;15.93;12.57;;;19.10;99.90;;;;;;2091832;28;20395;-74
2021/06/26 04:44:39;;;;;;;14.85;13.38;;;19.10;99.90;;;;;;2095010;28;20028;-74
2021/06/26 04:45:44;;;;;;;17.25;13.57;;;19.20;99.90;;;;;;2098183;28;20032;-74
2021/06/26 04:46:44;;;;;;;16.48;14.68;;;19.20;99.90;;;;;;2099547;28;20414;-74
2021/06/26 04:47:45;;;;;;;15.95;14.27;;;19.20;99.90;;;;;;2091561;28;20053;-74
2021/06/26 04:48:46;;;;;;;14.52;12.32;;;19.30;99.90;;;;;;2090144;28;20116;-74
2021/06/26 04:49:47;;;;;;;15.15;13.63;;;19.30;99.90;;;;;;2090988;28;20021;-74
2021/06/26 04:50:47;;;;;;;15.32;13.27;;;19.30;99.90;;;;;;2095546;28;20013;-74
2021/06/26 04:51:48;;;;;;;16.20;14.40;;;19.30;99.90;;;;;;2094954;28;21004;-74
2021/06/26 04:52:48;;;;;;;18.30;14.75;;;19.30;99.90;;;;;;2081019;28;20041;-74
2021/06/26 04:53:50;;;;;;;16.73;13.20;;;19.40;99.90;;;;;;2084956;28;20118;-74
2021/06/26 04:54:50;;;;;;;15.25;13.48;;;19.40;99.90;;;;;;2087555;28;20024;-74
2021/06/26 04:55:53;;;;;;;16.13;14.52;;;19.40;99.90;;;;;;2087711;28;20100;-74
2021/06/26 04:56:54;;;;;;;15.52;13.93;;;19.50;99.90;;;;;;2094468;28;20099;-74
2021/06/26 04:57:55;;;;;;;13.57;12.27;;;19.50;99.90;;;;;;2092176;28;20044;-75
2021/06/26 04:58:55;;;;;;;17.02;13.70;;;19.60;99.90;;;;;;2088206;28;20036;-75
2021/06/26 04:59:56;;;;;;;17.77;14.43;;;19.60;99.90;;;;;;2087685;28;20457;-75
2021/06/26 05:01:00;;;;;;;17.45;14.35;;;19.60;99.90;;;;;;2089776;28;20032;-70
2021/06/26 05:02:00;;;;;;;16.00;13.20;;;19.70;99.90;;;;;;2085811;28;20036;-68
2021/06/26 05:03:01;;;;;;;15.57;13.85;;;19.70;99.90;;;;;;2086182;28;20032;-68
2021/06/26 05:04:02;;;;;;;16.23;14.50;;;19.70;99.90;;;;;;2088837;28;20017;-68
2021/06/26 05:05:03;;;;;;;20.98;16.25;;;19.80;99.90;;;;;;2087630;28;20044;-68
2021/06/26 05:06:04;;;;;;;17.75;15.85;;;19.80;99.90;;;;;;2088873;28;20083;-68
2021/06/26 05:07:04;;;;;;;19.42;17.40;;;19.80;99.90;;;;;;2094800;28;20590;-68
2021/06/26 05:08:05;;;;;;;19.27;16.95;;;19.90;99.90;;;;;;2089168;28;20048;-68
2021/06/26 05:09:06;;;;;;;16.23;14.52;;;19.90;99.90;;;;;;2089016;28;20071;-68
2021/06/26 05:10:07;;;;;;;18.48;15.73;;;19.90;99.90;;;;;;2088961;28;20412;-68
2021/06/26 05:11:08;;;;;;;18.42;16.25;;;19.90;99.90;;;;;;2089054;28;20033;-68